Time;durP1;ratioP1;P1;durP2;ratioP2;P2;SDS_P1;SDS_P2;PMS_P1;PMS_P2;Temp;Humidity;BMP_temperature;BMP_pressure;BME280_temperature;BME280_humidity;BME280_pressure;Samples;Min_cycle;Max_cycle;Signal;HPM_P1;HPM_P2
2023/03/16 00:02:25;;;;;;;9.77;5.73;;;6.60;99.90;;;;;;4868018;29;20234;-61
2023/03/16 00:04:53;;;;;;;10.17;5.63;;;6.60;99.90;;;;;;4873880;29;20254;-62
2023/03/16 00:07:23;;;;;;;9.40;5.37;;;6.60;99.90;;;;;;4873602;29;20527;-61
2023/03/16 00:09:51;;;;;;;9.20;5.40;;;6.60;99.90;;;;;;4868020;29;20551;-62
2023/03/16 00:12:21;;;;;;;8.80;5.90;;;6.60;99.90;;;;;;4872869;29;20230;-62
2023/03/16 00:14:50;;;;;;;10.97;5.53;;;6.60;99.90;;;;;;4875717;29;20230;-62
2023/03/16 00:17:20;;;;;;;12.13;5.50;;;6.70;99.90;;;;;;4875222;29;20839;-62
2023/03/16 00:19:53;;;;;;;10.50;5.33;;;6.70;99.90;;;;;;4874534;29;20230;-61
2023/03/16 00:22:24;;;;;;;8.40;5.50;;;6.70;99.90;;;;;;4857499;29;20256;-62
2023/03/16 00:24:52;;;;;;;6.80;5.20;;;6.60;99.90;;;;;;4857461;29;20246;-62
2023/03/16 00:27:22;;;;;;;9.57;5.37;;;6.60;99.90;;;;;;4856438;29;20223;-61
2023/03/16 00:29:54;;;;;;;10.23;5.70;;;6.70;99.90;;;;;;4853126;29;20223;-62
2023/03/16 00:32:26;;;;;;;13.40;5.77;;;6.70;99.90;;;;;;4851208;29;20285;-62
2023/03/16 00:34:55;;;;;;;8.87;5.40;;;6.70;99.90;;;;;;4854575;29;20234;-62
2023/03/16 00:37:25;;;;;;;8.90;5.77;;;6.70;99.90;;;;;;4854539;29;20204;-61
2023/03/16 00:39:54;;;;;;;9.53;5.40;;;6.60;99.90;;;;;;4857998;29;20214;-62
2023/03/16 00:42:26;;;;;;;7.73;5.50;;;6.60;99.90;;;;;;4851180;29;20230;-61
2023/03/16 00:44:56;;;;;;;7.57;5.10;;;6.70;99.90;;;;;;4855372;29;20247;-62
2023/03/16 00:47:28;;;;;;;8.13;5.27;;;6.70;99.90;;;;;;4854862;29;20219;-62
2023/03/16 00:49:58;;;;;;;8.57;5.20;;;6.70;99.90;;;;;;4857174;29;20230;-62
2023/03/16 00:52:28;;;;;;;8.70;5.20;;;6.60;99.90;;;;;;4853773;29;20196;-62
2023/03/16 00:54:56;;;;;;;14.23;5.47;;;6.60;99.90;;;;;;4855661;29;20725;-62
2023/03/16 00:57:26;;;;;;;11.30;6.27;;;6.60;99.90;;;;;;4853411;29;20235;-61
2023/03/16 00:59:54;;;;;;;7.17;5.00;;;6.60;99.90;;;;;;4855618;29;20732;-62
2023/03/16 01:02:23;;;;;;;16.13;5.13;;;6.60;99.90;;;;;;4851978;29;20235;-62
2023/03/16 01:04:54;;;;;;;9.40;5.43;;;6.60;99.90;;;;;;4851902;29;20579;-61
2023/03/16 01:07:22;;;;;;;8.57;5.53;;;6.60;99.90;;;;;;4853142;29;20210;-62
2023/03/16 01:09:50;;;;;;;7.10;5.30;;;6.60;99.90;;;;;;4852713;29;20234;-62
2023/03/16 01:12:19;;;;;;;8.43;4.90;;;6.60;99.90;;;;;;4834781;29;20219;-64
2023/03/16 01:14:48;;;;;;;8.53;4.90;;;6.60;99.90;;;;;;4859225;29;20223;-62
2023/03/16 01:17:17;;;;;;;10.50;5.20;;;6.60;99.90;;;;;;4858226;29;20287;-62
2023/03/16 01:19:45;;;;;;;9.93;5.00;;;6.50;99.90;;;;;;4861453;29;20643;-62
2023/03/16 01:22:16;;;;;;;8.93;4.73;;;6.50;99.90;;;;;;4879266;29;20265;-62
2023/03/16 01:24:45;;;;;;;8.27;5.00;;;6.50;99.90;;;;;;4875803;29;20689;-62
2023/03/16 01:27:14;;;;;;;9.73;5.00;;;6.50;99.90;;;;;;4877775;29;20226;-62
2023/03/16 01:29:43;;;;;;;11.87;5.53;;;6.40;99.90;;;;;;4876222;29;20227;-62
2023/03/16 01:32:12;;;;;;;13.63;5.30;;;6.40;99.90;;;;;;4868588;29;20299;-62
2023/03/16 01:34:40;;;;;;;8.77;5.07;;;6.30;99.90;;;;;;4872562;29;20221;-62
2023/03/16 01:37:08;;;;;;;11.47;5.57;;;6.30;99.90;;;;;;4880097;29;20561;-63
2023/03/16 01:39:38;;;;;;;6.60;5.03;;;6.30;99.90;;;;;;4873612;29;20298;-61
2023/03/16 01:42:06;;;;;;;12.97;5.90;;;6.20;99.90;;;;;;4876013;29;20233;-62
2023/03/16 01:44:53;;;;;;;12.30;5.43;;;6.30;99.90;;;;;;4879314;29;20222;-62
2023/03/16 01:47:22;;;;;;;8.70;5.27;;;6.30;99.90;;;;;;4875725;29;20218;-62
2023/03/16 01:49:53;;;;;;;9.27;5.37;;;6.20;99.90;;;;;;4877402;29;20672;-63
2023/03/16 01:52:25;;;;;;;15.20;6.23;;;6.20;99.90;;;;;;4880172;29;20286;-62
2023/03/16 01:54:58;;;;;;;9.73;4.93;;;6.30;99.90;;;;;;4873732;29;20301;-62
2023/03/16 01:57:31;;;;;;;11.27;5.70;;;6.20;99.90;;;;;;4863747;29;20227;-62
2023/03/16 02:00:08;;;;;;;10.90;5.57;;;6.20;99.90;;;;;;4859521;29;20278;-63
2023/03/16 02:02:42;;;;;;;9.43;4.60;;;6.20;99.90;;;;;;4871508;29;20227;-63
2023/03/16 02:05:15;;;;;;;13.90;5.13;;;6.20;99.90;;;;;;4871264;29;20222;-62
2023/03/16 02:07:47;;;;;;;10.67;4.80;;;6.20;99.90;;;;;;4873090;29;20233;-63
2023/03/16 02:10:18;;;;;;;5.37;4.30;;;6.10;99.90;;;;;;4877568;29;20649;-62
2023/03/16 02:12:47;;;;;;;5.50;4.20;;;6.20;99.90;;;;;;4876787;29;20227;-62
2023/03/16 02:15:15;;;;;;;8.47;4.33;;;6.20;99.90;;;;;;4873661;29;20314;-62
2023/03/16 02:17:45;;;;;;;7.90;4.53;;;6.20;99.90;;;;;;4875886;29;20230;-61
2023/03/16 02:20:25;;;;;;;8.33;4.47;;;6.20;99.90;;;;;;4878408;29;20214;-61
2023/03/16 02:22:54;;;;;;;6.10;4.10;;;6.20;99.90;;;;;;4874879;29;20811;-62
2023/03/16 02:25:29;;;;;;;7.30;4.10;;;6.20;99.90;;;;;;4872876;29;20234;-59
2023/03/16 02:28:05;;;;;;;10.33;4.70;;;6.20;99.90;;;;;;4876586;29;20198;-61
2023/03/16 02:30:36;;;;;;;7.70;4.13;;;6.20;99.90;;;;;;4874215;29;20223;-62
2023/03/16 02:33:04;;;;;;;6.10;4.40;;;6.20;99.90;;;;;;4874988;29;20226;-62
2023/03/16 02:35:33;;;;;;;7.90;4.57;;;6.20;99.90;;;;;;4877712;29;20705;-62
2023/03/16 02:38:02;;;;;;;14.30;4.67;;;6.20;99.90;;;;;;4880123;29;20231;-62
2023/03/16 02:40:32;;;;;;;4.20;3.80;;;6.20;99.90;;;;;;4878568;29;20202;-62
2023/03/16 02:43:03;;;;;;;5.87;3.97;;;6.20;99.90;;;;;;4877022;29;20274;-61
2023/03/16 02:45:39;;;;;;;5.97;3.90;;;6.20;99.90;;;;;;4876288;29;20249;-62
2023/03/16 02:48:13;;;;;;;6.00;3.80;;;6.20;99.90;;;;;;4872573;29;20230;-61
2023/03/16 02:50:47;;;;;;;7.17;3.87;;;6.20;99.90;;;;;;4871660;29;20221;-62
2023/03/16 02:53:16;;;;;;;4.63;3.80;;;6.20;99.90;;;;;;4870768;29;20255;-62
2023/03/16 02:55:45;;;;;;;4.23;3.73;;;6.20;99.90;;;;;;4876219;29;20356;-62
2023/03/16 02:58:15;;;;;;;6.87;3.77;;;6.20;99.90;;;;;;4877064;29;20269;-62
2023/03/16 03:00:45;;;;;;;5.20;3.70;;;6.20;99.90;;;;;;4875172;29;20255;-62
2023/03/16 03:03:13;;;;;;;9.03;3.73;;;6.20;99.90;;;;;;4876081;29;20226;-62
2023/03/16 03:05:42;;;;;;;5.87;4.20;;;6.20;99.90;;;;;;4876652;29;20226;-62
2023/03/16 03:08:10;;;;;;;10.47;3.90;;;6.20;99.90;;;;;;4874733;29;20227;-62
2023/03/16 03:10:39;;;;;;;3.90;3.50;;;6.10;99.90;;;;;;4873581;29;20206;-62
2023/03/16 03:13:07;;;;;;;4.83;3.73;;;6.20;99.90;;;;;;4868398;29;20207;-62
2023/03/16 03:15:35;;;;;;;3.70;3.40;;;6.20;99.90;;;;;;4876942;29;20219;-62
2023/03/16 03:18:05;;;;;;;4.43;3.57;;;6.10;99.90;;;;;;4872581;29;20230;-61
2023/03/16 03:20:34;;;;;;;6.77;3.40;;;6.20;99.90;;;;;;4873913;29;20725;-62
2023/03/16 03:23:02;;;;;;;7.57;3.57;;;6.20;99.90;;;;;;4875642;29;20226;-62
2023/03/16 03:25:33;;;;;;;7.83;3.40;;;6.20;99.90;;;;;;4877101;29;20194;-62
2023/03/16 03:28:04;;;;;;;4.90;3.00;;;6.30;99.90;;;;;;4874475;29;20207;-62
2023/03/16 03:30:32;;;;;;;4.53;3.30;;;6.30;99.90;;;;;;4870413;29;20720;-62
2023/03/16 03:33:01;;;;;;;13.27;3.37;;;6.30;99.90;;;;;;4874395;29;20227;-62
2023/03/16 03:35:31;;;;;;;4.90;3.40;;;6.40;99.90;;;;;;4875825;29;20317;-62
2023/03/16 03:37:59;;;;;;;9.30;3.70;;;6.40;99.90;;;;;;4877770;29;20614;-62
2023/03/16 03:40:28;;;;;;;4.23;3.13;;;6.50;99.90;;;;;;4875966;29;20230;-62
2023/03/16 03:42:56;;;;;;;5.17;3.27;;;6.50;99.90;;;;;;4872002;29;20219;-62
2023/03/16 03:45:25;;;;;;;4.30;3.03;;;6.50;99.90;;;;;;4875710;29;20230;-62
2023/03/16 03:47:54;;;;;;;7.23;3.20;;;6.50;99.90;;;;;;4874774;29;20287;-62
2023/03/16 03:50:23;;;;;;;7.53;3.00;;;6.50;99.90;;;;;;4876791;29;20767;-62
2023/03/16 03:52:52;;;;;;;4.50;3.43;;;6.50;99.90;;;;;;4877159;29;20313;-62
2023/03/16 03:55:21;;;;;;;6.37;2.90;;;6.50;99.90;;;;;;4877239;29;20199;-62
2023/03/16 03:57:49;;;;;;;4.10;2.93;;;6.50;99.90;;;;;;4878728;29;20238;-62
2023/03/16 04:00:19;;;;;;;5.13;2.97;;;6.50;99.90;;;;;;4871820;29;20226;-62
2023/03/16 04:02:48;;;;;;;16.17;3.30;;;6.50;99.90;;;;;;4878324;29;20226;-62
2023/03/16 04:05:17;;;;;;;3.40;3.07;;;6.50;99.90;;;;;;4877415;29;20278;-62
2023/03/16 04:07:45;;;;;;;3.17;2.87;;;6.50;99.90;;;;;;4873084;29;20222;-62
2023/03/16 04:10:14;;;;;;;11.23;3.23;;;6.50;99.90;;;;;;4870601;29;20262;-63
2023/03/16 04:12:43;;;;;;;5.47;3.30;;;6.50;99.90;;;;;;4872212;29;20250;-62
2023/03/16 04:15:12;;;;;;;3.43;3.07;;;6.60;99.90;;;;;;4877174;29;20226;-62
2023/03/16 04:17:41;;;;;;;3.00;2.70;;;6.50;99.90;;;;;;4875625;29;20254;-62
2023/03/16 04:20:14;;;;;;;6.20;3.13;;;6.50;99.90;;;;;;4874745;29;20219;-62
2023/03/16 04:22:42;;;;;;;5.83;4.57;;;6.60;99.90;;;;;;4873399;29;20559;-62
2023/03/16 04:25:11;;;;;;;4.90;3.90;;;6.50;99.90;;;;;;4871956;29;20713;-62
2023/03/16 04:27:41;;;;;;;7.70;3.60;;;6.50;99.90;;;;;;4871886;29;20301;-62
2023/03/16 04:30:11;;;;;;;6.13;3.37;;;6.40;99.90;;;;;;4872910;29;20226;-62
2023/03/16 04:32:40;;;;;;;9.03;3.33;;;6.40;99.90;;;;;;4873725;29;20214;-62
2023/03/16 04:35:10;;;;;;;3.00;2.80;;;6.40;99.90;;;;;;4872498;29;20226;-61
2023/03/16 04:37:38;;;;;;;5.90;3.17;;;6.40;99.90;;;;;;4873669;29;20570;-62
2023/03/16 04:40:10;;;;;;;6.07;3.00;;;6.50;99.90;;;;;;4872827;29;20208;-62
2023/03/16 04:42:40;;;;;;;5.90;3.20;;;6.50;99.90;;;;;;4875998;29;20274;-62
2023/03/16 04:45:09;;;;;;;5.90;3.00;;;6.50;99.90;;;;;;4873644;29;20283;-62
2023/03/16 04:47:37;;;;;;;4.03;3.57;;;6.50;99.90;;;;;;4875172;29;20238;-62
2023/03/16 04:50:09;;;;;;;4.57;2.70;;;6.40;99.90;;;;;;4875299;29;20281;-62
2023/03/16 04:52:38;;;;;;;3.73;2.83;;;6.40;99.90;;;;;;4870414;29;20192;-62
2023/03/16 04:55:08;;;;;;;3.30;3.20;;;6.40;99.90;;;;;;4866879;29;20215;-62
2023/03/16 04:57:36;;;;;;;4.30;2.83;;;6.40;99.90;;;;;;4875477;29;20689;-63
2023/03/16 05:00:10;;;;;;;7.63;3.00;;;6.50;99.90;;;;;;4870279;29;20646;-62
2023/03/16 05:02:39;;;;;;;3.70;2.70;;;6.50;99.90;;;;;;4870931;29;20219;-62
2023/03/16 05:05:08;;;;;;;2.70;2.50;;;6.50;99.90;;;;;;4871816;29;20683;-64
2023/03/16 05:07:36;;;;;;;4.77;2.90;;;6.50;99.90;;;;;;4876050;29;20195;-62
2023/03/16 05:10:05;;;;;;;5.10;2.67;;;6.50;99.90;;;;;;4865929;29;20206;-62
2023/03/16 05:12:34;;;;;;;3.30;2.53;;;6.50;99.90;;;;;;4872192;29;20693;-62
2023/03/16 05:15:02;;;;;;;10.97;3.70;;;6.60;99.90;;;;;;4870592;29;20230;-62
2023/03/16 05:17:32;;;;;;;4.10;2.53;;;6.60;99.90;;;;;;4872429;29;21081;-62
2023/03/16 05:20:00;;;;;;;3.73;2.40;;;6.60;99.90;;;;;;4857242;29;20235;-62
2023/03/16 05:22:28;;;;;;;4.23;2.30;;;6.60;99.90;;;;;;4873383;29;20233;-61
2023/03/16 05:24:57;;;;;;;3.33;2.50;;;6.70;99.90;;;;;;4870401;29;20204;-62
2023/03/16 05:27:25;;;;;;;3.67;2.50;;;6.70;99.90;;;;;;4870176;29;20299;-62
2023/03/16 05:29:53;;;;;;;7.43;2.40;;;6.70;99.90;;;;;;4871360;29;20244;-62
2023/03/16 05:32:21;;;;;;;2.40;2.30;;;6.80;99.90;;;;;;4865449;29;20243;-62
2023/03/16 05:34:52;;;;;;;3.23;2.40;;;6.70;99.90;;;;;;4873974;29;20245;-62
2023/03/16 05:37:20;;;;;;;6.40;2.67;;;6.80;99.90;;;;;;4877689;29;20199;-62
2023/03/16 05:39:48;;;;;;;3.53;2.40;;;6.80;99.90;;;;;;4873187;29;20238;-61
2023/03/16 05:42:16;;;;;;;3.67;2.70;;;6.80;99.90;;;;;;4870439;29;20283;-62
2023/03/16 05:44:45;;;;;;;7.40;2.50;;;6.80;99.90;;;;;;4873276;29;20226;-62
2023/03/16 05:47:13;;;;;;;3.13;2.30;;;6.80;99.90;;;;;;4858247;29;20224;-62
2023/03/16 05:49:42;;;;;;;3.90;2.30;;;6.80;99.90;;;;;;4873234;29;20685;-61
2023/03/16 05:52:12;;;;;;;5.63;2.50;;;6.90;99.90;;;;;;4876332;29;20255;-62
2023/03/16 05:54:41;;;;;;;3.93;2.47;;;6.90;99.90;;;;;;4874153;29;20751;-62
2023/03/16 05:57:09;;;;;;;2.90;2.60;;;6.80;99.90;;;;;;4873827;29;20224;-61
2023/03/16 05:59:38;;;;;;;4.37;2.30;;;6.90;99.90;;;;;;4870827;29;20563;-62
2023/03/16 06:02:09;;;;;;;4.30;2.80;;;6.90;99.90;;;;;;4871410;29;20234;-61
2023/03/16 06:04:37;;;;;;;3.37;2.40;;;6.90;99.90;;;;;;4874211;29;20198;-61
2023/03/16 06:07:06;;;;;;;3.90;2.40;;;6.90;99.90;;;;;;4880072;29;20710;-62
2023/03/16 06:09:36;;;;;;;4.97;2.50;;;7.00;99.90;;;;;;4872197;29;20226;-62
2023/03/16 06:12:04;;;;;;;5.20;2.47;;;6.90;99.90;;;;;;4877176;29;20628;-61
2023/03/16 06:14:32;;;;;;;2.80;2.07;;;6.90;99.90;;;;;;4877049;29;20257;-62
2023/03/16 06:17:01;;;;;;;2.53;2.33;;;6.90;99.90;;;;;;4871010;29;20279;-61
2023/03/16 06:19:29;;;;;;;3.43;2.20;;;6.90;99.90;;;;;;4871830;29;20783;-62
2023/03/16 06:21:57;;;;;;;3.17;2.40;;;6.90;99.90;;;;;;4877620;29;20231;-61
2023/03/16 06:24:25;;;;;;;4.03;2.50;;;6.90;99.90;;;;;;4875072;29;20706;-62
2023/03/16 06:26:55;;;;;;;4.00;2.50;;;6.90;99.90;;;;;;4874960;29;20219;-62
2023/03/16 06:29:24;;;;;;;5.23;2.43;;;6.90;99.90;;;;;;4874946;29;20302;-62
2023/03/16 06:31:53;;;;;;;2.43;2.27;;;6.90;99.90;;;;;;4881291;29;20290;-62
2023/03/16 06:34:21;;;;;;;2.23;2.13;;;6.90;99.90;;;;;;4853837;29;20274;-61
2023/03/16 06:36:50;;;;;;;5.53;2.47;;;7.00;99.90;;;;;;4875836;29;20211;-62
2023/03/16 06:39:18;;;;;;;5.73;2.20;;;7.00;99.90;;;;;;4878144;29;20554;-62
2023/03/16 06:41:49;;;;;;;3.20;2.30;;;7.00;99.90;;;;;;4875779;29;20274;-62
2023/03/16 06:44:18;;;;;;;2.30;2.10;;;6.90;99.90;;;;;;4873947;29;20226;-62
2023/03/16 06:46:47;;;;;;;4.83;2.20;;;6.90;99.90;;;;;;4875005;29;20705;-61
2023/03/16 06:49:15;;;;;;;3.33;2.30;;;6.90;99.90;;;;;;4878966;29;20203;-61
2023/03/16 06:51:43;;;;;;;2.30;2.13;;;6.90;99.90;;;;;;4871368;29;20342;-61
2023/03/16 06:54:11;;;;;;;2.43;2.23;;;6.90;99.90;;;;;;4876442;29;20275;-62
2023/03/16 06:56:39;;;;;;;3.87;2.20;;;6.90;99.90;;;;;;4871076;29;20231;-62
2023/03/16 06:59:08;;;;;;;6.87;2.20;;;6.80;99.90;;;;;;4868159;29;20222;-62
2023/03/16 07:01:38;;;;;;;7.40;2.30;;;6.80;99.90;;;;;;4869848;29;20238;-62
2023/03/16 07:04:06;;;;;;;5.63;2.50;;;6.80;99.90;;;;;;4876533;29;20282;-62
2023/03/16 07:06:35;;;;;;;4.17;2.30;;;6.80;99.90;;;;;;4875027;29;20233;-61
2023/03/16 07:09:04;;;;;;;3.80;2.37;;;6.90;99.90;;;;;;4869353;29;20226;-61
2023/03/16 07:11:32;;;;;;;5.63;2.30;;;6.90;99.90;;;;;;4871602;29;20227;-62
2023/03/16 07:14:01;;;;;;;2.93;2.20;;;7.10;99.90;;;;;;4876931;29;20283;-62
2023/03/16 07:16:29;;;;;;;3.23;2.30;;;7.30;99.90;;;;;;4874737;29;20747;-61
2023/03/16 07:18:59;;;;;;;4.47;2.20;;;7.50;99.90;;;;;;4872598;29;20201;-62
2023/03/16 07:21:27;;;;;;;4.03;2.40;;;7.80;99.90;;;;;;4861900;29;20238;-62
2023/03/16 07:23:57;;;;;;;4.20;2.40;;;8.20;99.90;;;;;;4871804;29;20215;-62
2023/03/16 07:26:25;;;;;;;2.47;2.13;;;8.40;99.90;;;;;;4878296;29;20359;-62
2023/03/16 07:28:53;;;;;;;2.37;2.23;;;8.80;99.90;;;;;;4873079;29;20231;-62
2023/03/16 07:31:25;;;;;;;2.90;2.10;;;9.00;99.90;;;;;;4876314;29;20195;-62
2023/03/16 07:33:53;;;;;;;7.03;2.50;;;9.30;99.90;;;;;;4871320;29;20226;-62
2023/03/16 07:36:23;;;;;;;3.80;2.00;;;9.40;99.90;;;;;;4857940;29;20226;-62
2023/03/16 07:38:51;;;;;;;2.77;2.17;;;9.40;99.90;;;;;;4876880;29;20222;-62
2023/03/16 07:41:20;;;;;;;2.73;2.17;;;9.40;99.90;;;;;;4869086;29;20270;-63
2023/03/16 07:43:48;;;;;;;3.17;2.47;;;9.50;99.90;;;;;;4874530;29;20243;-63
2023/03/16 07:46:18;;;;;;;2.83;2.07;;;9.40;99.90;;;;;;4873102;29;20203;-62
2023/03/16 07:48:47;;;;;;;2.40;2.20;;;9.40;99.90;;;;;;4874345;29;20231;-61
2023/03/16 07:51:15;;;;;;;2.17;2.07;;;9.30;99.90;;;;;;4873078;29;20237;-61
2023/03/16 07:53:45;;;;;;;2.43;2.23;;;9.40;99.90;;;;;;4871923;29;20276;-62
2023/03/16 07:56:13;;;;;;;5.00;2.70;;;9.50;99.90;;;;;;4893352;23;20275;-61
2023/03/16 07:58:41;;;;;;;4.77;2.03;;;9.60;99.90;;;;;;4870825;29;20743;-60
2023/03/16 08:01:12;;;;;;;6.80;2.43;;;9.80;99.90;;;;;;4886955;29;20198;-61
2023/03/16 08:03:41;;;;;;;2.00;1.90;;;9.80;99.90;;;;;;4890222;29;20222;-60
2023/03/16 08:06:09;;;;;;;3.63;2.07;;;9.80;99.90;;;;;;4876034;29;20241;-60
2023/03/16 08:08:39;;;;;;;5.80;2.10;;;9.70;99.90;;;;;;4892048;29;20297;-60
2023/03/16 08:11:08;;;;;;;4.20;2.30;;;9.70;99.90;;;;;;4891157;29;20221;-60
2023/03/16 08:13:36;;;;;;;3.90;2.47;;;9.60;99.90;;;;;;4892080;29;20589;-60
2023/03/16 08:16:09;;;;;;;4.50;2.10;;;9.60;99.90;;;;;;4890364;29;20195;-59
2023/03/16 08:18:38;;;;;;;4.73;2.13;;;9.70;99.90;;;;;;4878186;29;20217;-60
2023/03/16 08:21:07;;;;;;;3.53;2.43;;;9.90;99.90;;;;;;4889496;29;20620;-60
2023/03/16 08:23:35;;;;;;;3.27;2.30;;;10.30;99.90;;;;;;4890213;29;20226;-60
2023/03/16 08:26:07;;;;;;;3.87;2.00;;;10.60;99.90;;;;;;4892740;29;20237;-60
2023/03/16 08:28:37;;;;;;;2.87;2.13;;;10.60;99.90;;;;;;4891911;29;20241;-60
2023/03/16 08:31:07;;;;;;;3.93;2.13;;;10.70;99.90;;;;;;4885238;29;20210;-60
2023/03/16 08:33:36;;;;;;;2.33;2.13;;;10.70;99.90;;;;;;4891836;29;20222;-60
2023/03/16 08:36:06;;;;;;;2.20;2.00;;;10.70;99.90;;;;;;4894513;29;20221;-60
2023/03/16 08:38:35;;;;;;;6.30;2.20;;;10.60;99.90;;;;;;4889050;29;20293;-60
2023/03/16 08:41:03;;;;;;;2.40;2.30;;;10.50;99.90;;;;;;4893156;29;20612;-60
2023/03/16 08:43:32;;;;;;;3.07;2.10;;;10.50;99.90;;;;;;4887852;29;20526;-60
2023/03/16 08:46:03;;;;;;;4.73;2.00;;;10.40;99.90;;;;;;4871134;29;20218;-60
2023/03/16 08:48:32;;;;;;;2.53;2.13;;;10.20;99.90;;;;;;4885104;29;20226;-59
2023/03/16 08:51:02;;;;;;;2.77;2.00;;;10.10;99.90;;;;;;4867216;29;20902;-60
2023/03/16 08:53:30;;;;;;;4.93;2.10;;;10.10;99.90;;;;;;4890577;29;20716;-60
2023/03/16 08:56:03;;;;;;;6.20;2.47;;;10.00;99.90;;;;;;4892923;29;20361;-60
2023/03/16 08:58:32;;;;;;;4.67;2.20;;;9.90;99.90;;;;;;4873587;29;20243;-60
2023/03/16 09:01:05;;;;;;;6.20;2.60;;;9.90;99.90;;;;;;4872650;29;20266;-60
2023/03/16 09:03:34;;;;;;;2.43;2.20;;;9.90;99.90;;;;;;4872424;29;20223;-61
2023/03/16 09:06:04;;;;;;;4.87;2.33;;;9.90;99.90;;;;;;4875036;29;20226;-60
2023/03/16 09:08:32;;;;;;;2.97;2.43;;;9.90;99.90;;;;;;4872346;29;20630;-60
2023/03/16 09:11:02;;;;;;;4.13;2.10;;;9.90;99.90;;;;;;4875858;29;20235;-61
2023/03/16 09:13:32;;;;;;;6.20;2.80;;;9.90;99.90;;;;;;4873933;29;20207;-61
2023/03/16 09:16:02;;;;;;;4.83;2.30;;;10.00;99.90;;;;;;4878832;29;20194;-62
2023/03/16 09:18:31;;;;;;;2.80;2.00;;;10.20;99.90;;;;;;4878446;29;20233;-61
2023/03/16 09:21:01;;;;;;;3.57;2.70;;;10.30;99.90;;;;;;4882177;29;20238;-61
2023/03/16 09:23:30;;;;;;;2.83;2.47;;;10.50;99.90;;;;;;4880473;29;20230;-61
2023/03/16 09:26:00;;;;;;;3.27;2.40;;;10.60;99.90;;;;;;4879725;29;20225;-61
2023/03/16 09:28:30;;;;;;;5.50;2.40;;;10.70;99.90;;;;;;4874509;29;20877;-61
2023/03/16 09:30:59;;;;;;;2.30;2.20;;;11.00;99.90;;;;;;4875399;29;20205;-62
2023/03/16 09:33:29;;;;;;;2.80;2.17;;;11.30;99.90;;;;;;4874494;29;20226;-62
2023/03/16 09:35:57;;;;;;;4.40;2.33;;;11.50;99.90;;;;;;4856322;29;20241;-62
2023/03/16 09:38:26;;;;;;;4.07;2.20;;;11.70;99.90;;;;;;4875595;29;20301;-62
2023/03/16 09:40:59;;;;;;;3.53;2.50;;;11.80;99.90;;;;;;4878608;29;20241;-62
2023/03/16 09:43:50;;;;;;;2.50;2.30;;;12.00;99.90;;;;;;4875495;29;20287;-61
2023/03/16 09:46:27;;;;;;;2.73;2.53;;;12.10;99.90;;;;;;4876570;29;20223;-62
2023/03/16 09:48:57;;;;;;;3.17;2.33;;;12.00;99.90;;;;;;4878022;29;21328;-62
2023/03/16 09:51:37;;;;;;;5.20;2.00;;;12.00;99.90;;;;;;4877025;29;20333;-62
2023/03/16 09:54:18;;;;;;;2.47;2.27;;;12.20;99.90;;;;;;4876829;29;20222;-62
2023/03/16 09:56:49;;;;;;;2.70;2.00;;;12.40;99.90;;;;;;4878569;29;20230;-61
2023/03/16 09:59:17;;;;;;;2.00;1.90;;;12.90;99.90;;;;;;4877028;29;20223;-62
2023/03/16 10:02:00;;;;;;;2.17;2.07;;;13.60;99.90;;;;;;4874663;29;20227;-62
2023/03/16 10:04:43;;;;;;;2.47;1.97;;;14.30;99.90;;;;;;4878234;29;20195;-61
2023/03/16 10:07:22;;;;;;;1.93;1.83;;;14.40;99.90;;;;;;4879115;29;20200;-62
2023/03/16 10:09:57;;;;;;;6.53;2.03;;;14.40;99.90;;;;;;4873498;29;20242;-62
2023/03/16 10:12:30;;;;;;;1.77;1.70;;;14.60;99.90;;;;;;4875628;29;22234;-62
2023/03/16 10:15:04;;;;;;;3.63;1.77;;;15.30;99.90;;;;;;4877843;29;20622;-63
2023/03/16 10:17:38;;;;;;;1.90;1.80;;;15.90;99.90;;;;;;4871059;29;20229;-62
2023/03/16 10:20:13;;;;;;;2.70;2.00;;;15.80;99.90;;;;;;4876058;29;20795;-62
2023/03/16 10:22:43;;;;;;;1.90;1.67;;;16.00;99.90;;;;;;4874122;29;20230;-62
2023/03/16 10:25:20;;;;;;;2.77;1.97;;;16.30;99.90;;;;;;4874323;29;20214;-62
2023/03/16 10:27:49;;;;;;;2.97;2.00;;;16.10;99.90;;;;;;4875732;29;20222;-62
2023/03/16 10:30:24;;;;;;;4.40;1.67;;;15.70;99.90;;;;;;4875202;29;20292;-62
2023/03/16 10:32:53;;;;;;;5.13;1.50;;;15.80;99.90;;;;;;4876983;29;20230;-62
2023/03/16 10:35:40;;;;;;;2.10;1.80;;;15.90;99.90;;;;;;4874923;29;20294;-62
2023/03/16 10:38:09;;;;;;;2.00;1.80;;;15.50;99.90;;;;;;4876099;29;20235;-62
2023/03/16 10:40:39;;;;;;;3.90;1.53;;;15.50;99.90;;;;;;4876912;29;20255;-62
2023/03/16 10:43:12;;;;;;;1.77;1.50;;;15.60;99.90;;;;;;4875857;29;20580;-63
2023/03/16 10:45:43;;;;;;;3.23;1.60;;;15.20;99.90;;;;;;4877640;29;20231;-62
2023/03/16 10:48:14;;;;;;;3.53;1.67;;;15.00;99.90;;;;;;4877824;29;20639;-62
2023/03/16 10:50:50;;;;;;;4.77;1.60;;;15.20;99.90;;;;;;4874948;29;20275;-62
2023/03/16 10:53:22;;;;;;;1.83;1.43;;;15.30;99.90;;;;;;4875718;29;20230;-62
2023/03/16 10:55:58;;;;;;;3.27;1.80;;;15.30;99.90;;;;;;4859197;29;20236;-62
2023/03/16 10:58:31;;;;;;;2.30;1.57;;;15.10;99.90;;;;;;4878800;29;20212;-61
2023/03/16 11:01:00;;;;;;;1.43;1.33;;;14.90;99.90;;;;;;4877951;29;20257;-62
2023/03/16 11:03:31;;;;;;;4.30;1.73;;;14.80;99.90;;;;;;4874423;29;20222;-62
2023/03/16 11:06:03;;;;;;;1.50;1.50;;;14.60;99.90;;;;;;4876802;29;20227;-62
2023/03/16 11:08:33;;;;;;;3.03;1.70;;;14.80;99.90;;;;;;4874724;29;20223;-62
2023/03/16 11:11:10;;;;;;;4.40;1.40;;;15.20;99.90;;;;;;4873334;29;20902;-62
2023/03/16 11:13:44;;;;;;;2.50;1.40;;;15.30;99.90;;;;;;4881155;29;20944;-62
2023/03/16 11:16:24;;;;;;;3.33;1.60;;;15.40;99.90;;;;;;4874677;29;20555;-62
2023/03/16 11:18:57;;;;;;;2.83;1.60;;;15.20;99.90;;;;;;4873465;29;20227;-62
2023/03/16 11:21:38;;;;;;;3.87;1.40;;;14.90;99.90;;;;;;4862608;29;20222;-62
2023/03/16 11:24:17;;;;;;;1.60;1.50;;;14.50;99.90;;;;;;4861479;29;20294;-62
2023/03/16 11:26:48;;;;;;;1.50;1.40;;;14.20;99.90;;;;;;4871481;29;20278;-62
2023/03/16 11:29:23;;;;;;;1.53;1.47;;;13.90;99.90;;;;;;4875126;29;20227;-62
2023/03/16 11:31:55;;;;;;;3.70;1.60;;;13.90;99.90;;;;;;4875665;29;20237;-63
2023/03/16 11:34:29;;;;;;;1.60;1.50;;;13.80;99.90;;;;;;4875756;29;20251;-58
2023/03/16 11:37:11;;;;;;;2.63;1.60;;;13.70;99.90;;;;;;4874198;29;20249;-62
2023/03/16 11:39:52;;;;;;;2.03;1.60;;;14.00;99.90;;;;;;4875095;29;20804;-62
2023/03/16 11:42:29;;;;;;;2.03;1.63;;;14.40;99.90;;;;;;4870417;29;20246;-62
2023/03/16 11:45:09;;;;;;;1.73;1.47;;;14.70;99.90;;;;;;4870695;29;20222;-62
2023/03/16 11:47:59;;;;;;;3.80;1.40;;;14.90;99.90;;;;;;4874166;29;20245;-62
2023/03/16 11:50:35;;;;;;;3.80;1.70;;;14.90;99.90;;;;;;4878022;29;20611;-62
2023/03/16 11:53:11;;;;;;;1.87;1.63;;;15.30;99.90;;;;;;4871010;29;20279;-62
2023/03/16 11:55:48;;;;;;;2.00;1.30;;;15.50;99.90;;;;;;4873636;29;20207;-62
2023/03/16 11:58:37;;;;;;;1.90;1.30;;;15.70;99.90;;;;;;4873770;29;20279;-63
2023/03/16 12:01:13;;;;;;;4.87;1.67;;;16.00;99.90;;;;;;4877269;29;20226;-62
2023/03/16 12:04:04;;;;;;;2.47;1.30;;;16.10;99.90;;;;;;4874254;29;20219;-62
2023/03/16 12:06:43;;;;;;;2.57;1.30;;;16.30;99.90;;;;;;4867958;29;20737;-61
2023/03/16 12:09:49;;;;;;;1.90;1.20;;;15.90;99.90;;;;;;4873918;29;20268;-62
2023/03/16 12:12:36;;;;;;;2.50;1.60;;;15.90;99.90;;;;;;4870148;29;20517;-62
2023/03/16 12:15:43;;;;;;;2.43;1.40;;;15.90;99.90;;;;;;4875994;29;20235;-62
2023/03/16 12:18:17;;;;;;;1.33;1.20;;;15.60;99.90;;;;;;4875138;29;20228;-61
2023/03/16 12:20:52;;;;;;;3.07;1.37;;;15.30;99.90;;;;;;4876653;29;20227;-62
2023/03/16 12:23:24;;;;;;;2.17;1.43;;;15.40;99.90;;;;;;4874618;29;20685;-62
2023/03/16 12:25:58;;;;;;;1.60;1.50;;;15.30;99.90;;;;;;4854000;29;20269;-62
2023/03/16 12:28:29;;;;;;;2.47;1.67;;;15.30;99.90;;;;;;4871581;29;20726;-60
2023/03/16 12:31:09;;;;;;;2.47;1.53;;;15.40;99.90;;;;;;4878832;29;20194;-61
2023/03/16 12:34:01;;;;;;;4.83;1.60;;;15.40;99.90;;;;;;4874970;29;20270;-61
2023/03/16 12:36:56;;;;;;;3.77;1.30;;;15.60;99.90;;;;;;4867614;29;20284;-61
2023/03/16 12:39:40;;;;;;;2.20;1.40;;;15.70;99.90;;;;;;4875454;29;20230;-61
2023/03/16 12:42:26;;;;;;;2.73;1.30;;;15.50;99.90;;;;;;4872751;29;20226;-62
2023/03/16 12:44:57;;;;;;;1.43;1.33;;;15.40;99.90;;;;;;4873953;29;20223;-61
2023/03/16 12:47:31;;;;;;;1.83;1.40;;;15.30;99.90;;;;;;4874435;29;20238;-62
2023/03/16 12:50:06;;;;;;;1.43;1.30;;;15.30;99.90;;;;;;4874714;29;20250;-62
2023/03/16 12:52:41;;;;;;;2.90;1.40;;;15.20;99.90;;;;;;4875221;29;20202;-62
2023/03/16 12:55:16;;;;;;;1.63;1.53;;;15.00;99.90;;;;;;4863849;29;20214;-61
2023/03/16 12:57:50;;;;;;;2.90;1.67;;;14.90;99.90;;;;;;4875806;29;20800;-61
2023/03/16 13:00:20;;;;;;;2.73;1.50;;;15.20;99.90;;;;;;4873744;29;20255;-62
2023/03/16 13:02:54;;;;;;;2.67;1.40;;;15.00;99.90;;;;;;4876641;29;20225;-62
2023/03/16 13:05:31;;;;;;;3.90;1.60;;;14.80;99.90;;;;;;4873081;29;20222;-62
2023/03/16 13:08:09;;;;;;;1.77;1.20;;;14.90;99.90;;;;;;4877660;29;20234;-61
2023/03/16 13:10:39;;;;;;;2.33;1.40;;;15.00;99.90;;;;;;4873593;29;20254;-62
2023/03/16 13:13:11;;;;;;;1.53;1.50;;;15.00;99.90;;;;;;4880380;29;20231;-62
2023/03/16 13:15:40;;;;;;;3.13;1.30;;;15.00;99.90;;;;;;4878102;29;20247;-61